Time;durP1;ratioP1;P1;durP2;ratioP2;P2;SDS_P1;SDS_P2;PMS_P1;PMS_P2;Temp;Humidity;BMP_temperature;BMP_pressure;BME280_temperature;BME280_humidity;BME280_pressure;Samples;Min_cycle;Max_cycle;Signal;HPM_P1;HPM_P2
2021/11/07 00:02:14;;;;;;;8.63;4.95;;;;;;;8.84;100.00;101964.38;5176637;28;20387;-72
2021/11/07 00:04:47;;;;;;;;;;;;;;;8.78;100.00;101965.72;5203551;28;20923;-71
2021/11/07 00:07:29;;;;;;;16.55;5.15;;;;;;;8.77;100.00;101956.00;5188512;28;19913;-72
2021/11/07 00:12:37;;;;;;;13.60;5.60;;;;;;;8.70;100.00;101944.13;5172811;28;20017;-72
2021/11/07 00:15:09;;;;;;;9.85;5.47;;;;;;;8.70;100.00;101948.63;5202979;28;20036;-72
2021/11/07 00:17:46;;;;;;;14.60;5.65;;;;;;;8.69;100.00;101952.28;5203289;28;20221;-72
2021/11/07 00:20:28;;;;;;;10.63;5.07;;;;;;;8.69;100.00;101957.63;5201609;28;20379;-73
2021/11/07 00:23:15;;;;;;;11.07;7.00;;;;;;;8.64;100.00;101936.59;5193350;28;20036;-72
2021/11/07 00:26:04;;;;;;;11.32;6.65;;;;;;;8.58;100.00;101923.72;5181987;28;20044;-71
2021/11/07 00:28:40;;;;;;;14.43;5.95;;;;;;;8.52;100.00;101927.75;5198864;28;20180;-72
2021/11/07 00:36:34;;;;;;;18.00;7.35;;;;;;;8.46;100.00;101911.38;5196848;28;20026;-72
2021/11/07 00:39:18;;;;;;;12.20;7.57;;;;;;;8.42;100.00;101915.25;5181461;28;20033;-72
2021/11/07 00:42:04;;;;;;;12.07;6.80;;;;;;;8.45;100.00;101931.91;5204187;28;20065;-72
2021/11/07 00:44:51;;;;;;;13.95;7.28;;;;;;;8.47;100.00;101934.44;5202574;28;20034;-72
2021/11/07 00:47:35;;;;;;;19.05;7.72;;;;;;;8.44;100.00;101922.19;5202271;28;20025;-72
2021/11/07 00:50:10;;;;;;;19.23;7.57;;;;;;;8.49;100.00;101933.38;5195188;28;20430;-73
2021/11/07 00:55:42;;;;;;;12.82;8.30;;;;;;;8.48;100.00;101931.69;5191987;28;20017;-73
2021/11/07 00:58:18;;;;;;;17.87;7.37;;;;;;;8.51;100.00;101933.22;5137355;28;1458986;-73
2021/11/07 01:01:00;;;;;;;19.75;8.68;;;;;;;8.51;100.00;101930.56;5202403;28;20100;-73
2021/11/07 01:03:31;;;;;;;15.35;8.88;;;;;;;8.52;100.00;101933.09;5192671;28;20037;-72
2021/11/07 01:06:02;;;;;;;17.50;8.95;;;;;;;8.51;100.00;101926.06;5198460;28;20026;-72
2021/11/07 01:08:33;;;;;;;14.30;7.88;;;;;;;8.51;100.00;101928.72;5202016;28;20110;-72
2021/11/07 01:11:04;;;;;;;13.68;8.43;;;;;;;8.50;100.00;101921.69;5202332;28;20060;-72
2021/11/07 01:13:35;;;;;;;14.30;7.55;;;;;;;8.51;100.00;101927.88;5201672;28;20426;-73
2021/11/07 01:16:06;;;;;;;16.13;9.15;;;;;;;8.49;100.00;101920.00;5202193;28;20098;-73
2021/11/07 01:18:37;;;;;;;15.50;8.52;;;;;;;8.47;100.00;101910.38;5189210;28;20026;-73
2021/11/07 01:21:11;;;;;;;15.68;8.88;;;;;;;8.46;100.00;101912.22;5183497;28;20022;-73
2021/11/07 01:23:50;;;;;;;16.20;8.63;;;;;;;8.52;100.00;101906.34;5203073;28;20059;-72
2021/11/07 01:28:59;;;;;;;15.80;9.05;;;;;;;8.53;100.00;101899.16;5202414;28;20075;-73
2021/11/07 01:31:29;;;;;;;14.57;9.00;;;;;;;8.52;100.00;101898.31;5202338;28;20056;-73
2021/11/07 01:34:01;;;;;;;14.88;8.10;;;;;;;8.57;100.00;101901.47;5194740;28;20223;-73
2021/11/07 01:36:39;;;;;;;14.13;8.48;;;;;;;8.61;100.00;101895.88;5182698;28;20048;-73
2021/11/07 01:39:23;;;;;;;23.30;9.07;;;;;;;8.63;100.00;101876.03;5180722;28;20071;-74
2021/11/07 01:44:46;;;;;;;15.20;8.57;;;;;;;8.63;100.00;101880.53;5188022;28;20065;-75
2021/11/07 01:47:18;;;;;;;15.35;8.63;;;;;;;8.66;100.00;101878.47;5201421;28;20025;-73
2021/11/07 01:49:48;;;;;;;13.10;8.55;;;;;;;8.62;100.00;101871.66;5188772;28;20602;-74
2021/11/07 01:52:21;;;;;;;18.25;8.90;;;;;;;8.65;100.00;101876.78;5201922;28;20230;-73
2021/11/07 01:54:59;;;;;;;21.35;9.75;;;;;;;8.67;100.00;101879.31;5187865;28;20090;-73
2021/11/07 01:57:31;;;;;;;16.17;9.25;;;;;;;8.68;100.00;101878.31;5200515;28;20032;-73
2021/11/07 02:00:14;;;;;;;15.38;9.55;;;;;;;8.68;100.00;101881.84;5201068;28;20124;-73
2021/11/07 02:02:45;;;;;;;14.73;9.63;;;;;;;8.67;100.00;101874.81;5198196;28;20365;-74
2021/11/07 02:05:16;;;;;;;16.20;9.75;;;;;;;8.71;100.00;101875.41;5192846;28;20025;-74
2021/11/07 02:07:48;;;;;;;14.70;8.73;;;;;;;8.73;100.00;101882.31;5189029;28;20096;-73
2021/11/07 02:10:19;;;;;;;18.17;9.82;;;;;;;8.70;100.00;101882.56;5202513;28;20022;-75
2021/11/07 02:12:50;;;;;;;14.55;10.00;;;;;;;8.76;100.00;101870.50;5202268;28;20083;-73
2021/11/07 02:15:21;;;;;;;21.30;10.95;;;;;;;8.75;100.00;101882.19;5201857;28;20021;-74
2021/11/07 02:18:12;;;;;;;17.27;9.85;;;;;;;8.69;100.00;101864.00;5199974;28;20037;-74
2021/11/07 02:21:04;;;;;;;16.20;9.63;;;;;;;8.66;100.00;101866.91;5174900;28;20022;-74
2021/11/07 02:23:35;;;;;;;17.67;10.50;;;;;;;8.66;100.00;101865.09;5201473;28;20021;-75
2021/11/07 02:26:07;;;;;;;20.85;9.90;;;;;;;8.66;100.00;101865.09;5190900;28;20479;-76
2021/11/07 02:28:42;;;;;;;24.25;11.27;;;;;;;8.62;100.00;101849.41;5193145;28;20044;-75
2021/11/07 02:31:16;;;;;;;22.90;11.32;;;;;;;8.62;100.00;101828.00;5192602;28;20103;-72
2021/11/07 02:33:47;;;;;;;23.27;11.40;;;;;;;8.60;100.00;101836.19;5200825;28;20506;-73
2021/11/07 02:36:19;;;;;;;18.45;10.52;;;;;;;8.65;100.00;101835.78;5187464;28;20105;-73
2021/11/07 02:38:49;;;;;;;26.35;10.73;;;;;;;8.62;100.00;101831.53;5189409;28;20280;-73
2021/11/07 02:41:20;;;;;;;17.42;10.23;;;;;;;8.64;100.00;101834.09;5187998;28;20026;-73
2021/11/07 02:43:54;;;;;;;21.70;11.02;;;;;;;8.64;100.00;101831.44;5201231;28;20053;-73
2021/11/07 02:46:26;;;;;;;21.65;11.27;;;;;;;8.66;100.00;101826.78;5200648;28;20562;-73
2021/11/07 02:48:59;;;;;;;18.48;11.20;;;;;;;8.71;100.00;101805.84;5201072;28;20065;-73
2021/11/07 02:51:45;;;;;;;19.13;11.55;;;;;;;8.66;100.00;101798.22;5201639;28;20582;-73
2021/11/07 02:54:19;;;;;;;20.77;11.32;;;;;;;8.69;100.00;101810.50;5195708;28;20017;-73
2021/11/07 02:56:51;;;;;;;23.20;12.80;;;;;;;8.68;100.00;101798.06;5183386;28;20032;-73
2021/11/07 02:59:26;;;;;;;22.88;11.50;;;;;;;8.70;100.00;101798.81;5196994;28;20426;-73
2021/11/07 03:01:58;;;;;;;25.85;12.18;;;;;;;8.67;100.00;101794.53;5179989;28;20490;-73
2021/11/07 03:04:29;;;;;;;19.77;12.27;;;;;;;8.66;100.00;101800.88;5198138;28;20030;-72
2021/11/07 03:07:00;;;;;;;20.95;12.18;;;;;;;8.67;100.00;101796.38;5188123;28;20486;-72
2021/11/07 03:09:35;;;;;;;19.75;11.25;;;;;;;8.69;100.00;101784.59;5199708;28;20317;-72
2021/11/07 03:12:08;;;;;;;23.27;12.50;;;;;;;8.67;100.00;101786.53;5199983;28;20467;-72
2021/11/07 03:14:47;;;;;;;22.90;11.95;;;;;;;8.75;100.00;101791.22;5200455;28;20021;-73
2021/11/07 03:17:22;;;;;;;23.15;12.45;;;;;;;8.69;100.00;101781.91;5186260;28;20123;-72
2021/11/07 03:19:54;;;;;;;21.33;12.55;;;;;;;8.69;100.00;101779.22;5189378;28;20030;-73
2021/11/07 03:22:28;;;;;;;22.98;12.38;;;;;;;8.70;100.00;101772.06;5197456;28;20021;-72
2021/11/07 03:24:59;;;;;;;21.93;11.97;;;;;;;8.73;100.00;101777.97;5186921;28;20502;-72
2021/11/07 03:27:37;;;;;;;20.63;12.15;;;;;;;8.73;100.00;101774.44;5200139;28;20306;-72
2021/11/07 03:30:22;;;;;;;20.90;11.73;;;;;;;8.75;100.00;101775.19;5200640;28;20029;-72
2021/11/07 03:32:55;;;;;;;21.98;11.43;;;;;;;8.75;100.00;101770.66;5200869;28;20034;-72
2021/11/07 03:35:29;;;;;;;16.50;10.02;;;;;;;8.81;100.00;101772.81;5187284;28;20033;-73
2021/11/07 03:38:00;;;;;;;18.63;11.68;;;;;;;8.79;100.00;101765.91;5186292;28;20033;-73
2021/11/07 03:40:30;;;;;;;16.38;10.77;;;;;;;8.76;100.00;101758.97;5200134;28;20018;-73
2021/11/07 03:43:01;;;;;;;18.63;11.10;;;;;;;8.77;100.00;101758.00;5199932;28;20086;-70
2021/11/07 03:45:32;;;;;;;16.67;11.02;;;;;;;8.75;100.00;101761.81;5199470;28;20030;-72
2021/11/07 03:48:02;;;;;;;17.20;11.13;;;;;;;8.78;100.00;101765.03;5199511;28;20032;-71
2021/11/07 03:50:34;;;;;;;15.90;10.23;;;;;;;8.79;100.00;101750.72;5190601;28;20033;-71
2021/11/07 03:53:04;;;;;;;18.73;11.48;;;;;;;8.83;100.00;101751.25;5196209;28;20080;-71
2021/11/07 03:55:35;;;;;;;18.30;11.25;;;;;;;8.84;100.00;101753.00;5182406;28;20346;-74
2021/11/07 03:58:06;;;;;;;18.27;11.05;;;;;;;8.88;100.00;101757.06;5196533;28;20013;-75
2021/11/07 04:00:37;;;;;;;18.45;10.85;;;;;;;8.87;100.00;101751.84;5199128;28;20037;-74
2021/11/07 04:03:08;;;;;;;22.55;12.43;;;;;;;8.87;100.00;101750.03;5199974;28;20116;-74
2021/11/07 04:05:39;;;;;;;19.58;11.98;;;;;;;8.95;100.00;101762.75;5198651;28;20030;-75
2021/11/07 04:08:10;;;;;;;25.15;12.75;;;;;;;8.94;100.00;101764.59;5186887;28;20048;-74
2021/11/07 04:10:41;;;;;;;20.63;12.23;;;;;;;8.94;100.00;101763.75;5198415;28;20449;-74
2021/11/07 04:13:11;;;;;;;20.00;11.98;;;;;;;8.90;100.00;101743.56;5188438;28;20029;-74
2021/11/07 04:15:43;;;;;;;20.90;11.88;;;;;;;8.93;100.00;101740.59;5199481;28;20368;-74
2021/11/07 04:18:14;;;;;;;26.85;16.17;;;;;;;9.03;100.00;101746.84;5199388;28;20025;-72
2021/11/07 04:20:44;;;;;;;36.13;25.42;;;;;;;9.08;100.00;101742.78;5198084;28;20048;-72
2021/11/07 04:23:15;;;;;;;23.00;11.95;;;;;;;9.03;100.00;101728.97;5199620;28;20033;-74
2021/11/07 04:25:46;;;;;;;20.00;12.30;;;;;;;9.01;100.00;101738.13;5185798;28;20372;-74
2021/11/07 04:28:16;;;;;;;29.63;19.60;;;;;;;9.05;100.00;101735.03;5185597;28;20117;-75
2021/11/07 04:30:47;;;;;;;25.80;14.18;;;;;;;9.05;100.00;101726.16;5199558;28;20022;-72
2021/11/07 04:33:18;;;;;;;26.20;16.45;;;;;;;9.05;100.00;101723.50;5199227;28;20083;-72
2021/11/07 04:35:49;;;;;;;20.23;11.90;;;;;;;9.01;100.00;101709.53;5190408;28;20483;-75
2021/11/07 04:38:19;;;;;;;19.83;11.57;;;;;;;9.01;100.00;101714.88;5183408;28;20052;-75
2021/11/07 04:40:50;;;;;;;20.27;11.13;;;;;;;9.05;100.00;101716.31;5199589;28;20025;-76
2021/11/07 04:43:21;;;;;;;24.17;13.13;;;;;;;9.09;100.00;101700.84;5199689;28;20032;-75
2021/11/07 04:45:53;;;;;;;18.33;10.80;;;;;;;9.08;100.00;101701.78;5199635;28;20033;-75
2021/11/07 04:48:24;;;;;;;19.35;10.75;;;;;;;9.10;100.00;101704.34;5201383;28;20474;-75
2021/11/07 04:50:55;;;;;;;19.25;11.43;;;;;;;9.14;100.00;101711.97;5204017;28;20104;-72
2021/11/07 04:53:25;;;;;;;19.77;11.18;;;;;;;9.16;100.00;101698.44;5177044;28;20026;-73
2021/11/07 04:55:56;;;;;;;29.77;12.15;;;;;;;9.19;100.00;101699.03;5197262;28;20030;-73
2021/11/07 04:58:27;;;;;;;19.33;10.65;;;;;;;9.21;100.00;101701.56;5202200;28;20103;-73
2021/11/07 05:00:57;;;;;;;22.55;12.25;;;;;;;9.21;100.00;101698.88;5200116;28;20152;-72
2021/11/07 05:03:29;;;;;;;19.13;10.93;;;;;;;9.21;100.00;101701.56;5191906;28;20033;-73
2021/11/07 05:06:00;;;;;;;18.50;10.45;;;;;;;9.19;100.00;101701.72;5202599;28;20021;-73
2021/11/07 05:08:30;;;;;;;23.88;11.85;;;;;;;9.19;100.00;101707.06;5202324;28;20490;-73
2021/11/07 05:11:01;;;;;;;22.90;11.70;;;;;;;9.23;100.00;101719.16;5202195;28;20021;-73
2021/11/07 05:13:31;;;;;;;18.73;11.30;;;;;;;9.27;100.00;101736.66;5185185;28;20024;-73
2021/11/07 05:16:02;;;;;;;30.10;18.75;;;;;;;9.33;100.00;101729.91;5202688;28;20327;-73
2021/11/07 05:18:33;;;;;;;50.38;35.20;;;;;;;9.36;100.00;101713.59;5168258;28;20028;-74
2021/11/07 05:21:03;;;;;;;15.60;10.10;;;;;;;9.32;100.00;101704.13;5194834;28;20034;-72
2021/11/07 05:23:34;;;;;;;23.90;11.73;;;;;;;9.34;100.00;101699.50;5195489;28;20029;-72
2021/11/07 05:26:04;;;;;;;17.77;10.63;;;;;;;9.37;100.00;101679.63;5191335;28;20502;-73
2021/11/07 05:28:35;;;;;;;20.95;10.20;;;;;;;9.36;100.00;101677.94;5189462;28;20044;-71
2021/11/07 05:31:06;;;;;;;17.83;11.15;;;;;;;9.44;100.00;101697.69;5202838;28;20105;-72
2021/11/07 05:33:37;;;;;;;19.92;10.55;;;;;;;9.45;100.00;101694.03;5189194;28;20130;-72
2021/11/07 05:36:08;;;;;;;22.92;11.70;;;;;;;9.46;100.00;101701.06;5202046;28;20029;-72
2021/11/07 05:38:38;;;;;;;20.75;12.23;;;;;;;9.49;100.00;101703.47;5183130;28;20045;-73
2021/11/07 05:41:09;;;;;;;21.98;11.18;;;;;;;9.47;100.00;101700.06;5194875;28;20033;-73
2021/11/07 05:43:40;;;;;;;21.63;11.95;;;;;;;9.49;100.00;101695.44;5202176;28;20112;-73
2021/11/07 05:46:10;;;;;;;20.98;11.70;;;;;;;9.54;100.00;101705.75;5188533;28;20022;-73
2021/11/07 05:48:41;;;;;;;21.98;12.48;;;;;;;9.58;100.00;101699.09;5201853;28;20029;-72
2021/11/07 05:51:12;;;;;;;25.00;13.45;;;;;;;9.58;100.00;101694.56;5201985;28;20053;-70
2021/11/07 05:53:43;;;;;;;27.92;12.43;;;;;;;9.59;100.00;101712.38;5200028;28;20029;-71
2021/11/07 05:56:13;;;;;;;25.60;11.77;;;;;;;9.63;100.00;101717.44;5198989;28;20028;-71
2021/11/07 05:58:44;;;;;;;29.33;13.52;;;;;;;9.61;100.00;101725.63;5201393;28;20029;-71
2021/11/07 06:01:15;;;;;;;25.50;11.65;;;;;;;9.56;100.00;101726.03;5200619;28;20461;-72
2021/11/07 06:03:46;;;;;;;22.33;12.90;;;;;;;9.57;100.00;101727.72;5202249;28;20372;-71
2021/11/07 06:06:17;;;;;;;27.42;14.27;;;;;;;9.54;100.00;101727.16;5201655;28;20044;-71
2021/11/07 06:08:48;;;;;;;24.50;12.68;;;;;;;9.54;100.00;101713.78;5201981;28;20064;-71
2021/11/07 06:11:20;;;;;;;36.75;20.55;;;;;;;9.61;100.00;101720.25;5201696;28;20513;-71
2021/11/07 06:13:50;;;;;;;28.20;13.68;;;;;;;9.57;100.00;101713.47;5186871;28;20522;-71
2021/11/07 06:16:21;;;;;;;22.75;12.23;;;;;;;9.58;100.00;101713.34;5189925;28;20024;-72
2021/11/07 06:18:51;;;;;;;33.85;19.05;;;;;;;9.57;100.00;101722.34;5201258;28;20022;-71
2021/11/07 06:21:22;;;;;;;41.20;24.20;;;;;;;9.58;100.00;101721.38;5200738;28;20057;-71
2021/11/07 06:23:55;;;;;;;36.15;18.48;;;;;;;9.56;100.00;101738.59;5201090;28;20064;-71
2021/11/07 06:26:25;;;;;;;148.02;71.15;;;;;;;9.62;100.00;101753.25;5201382;28;20026;-71
2021/11/07 06:28:58;;;;;;;40.70;19.05;;;;;;;9.62;100.00;101738.03;5194981;28;20320;-71
2021/11/07 06:31:29;;;;;;;25.25;13.25;;;;;;;9.65;100.00;101742.28;5194509;28;20107;-71
2021/11/07 06:34:00;;;;;;;33.53;18.92;;;;;;;9.70;100.00;101751.59;5201331;28;20121;-71
2021/11/07 06:36:30;;;;;;;28.60;16.48;;;;;;;9.70;100.00;101740.88;5201039;28;20104;-71
2021/11/07 06:39:01;;;;;;;25.15;15.02;;;;;;;9.67;100.00;101735.78;5189564;28;20025;-71
2021/11/07 06:41:32;;;;;;;26.25;13.00;;;;;;;9.71;100.00;101736.34;5201144;28;20021;-71
2021/11/07 06:44:03;;;;;;;23.38;11.73;;;;;;;9.67;100.00;101732.25;5201671;28;20025;-71
2021/11/07 06:46:35;;;;;;;25.38;13.27;;;;;;;9.71;100.00;101728.31;5201632;28;20028;-72
2021/11/07 06:49:10;;;;;;;21.95;11.73;;;;;;;9.63;100.00;101736.19;5200921;28;20494;-71
2021/11/07 06:51:44;;;;;;;21.57;10.70;;;;;;;9.58;100.00;101721.38;5177259;28;20080;-71
2021/11/07 06:54:14;;;;;;;43.28;22.30;;;;;;;9.51;100.00;101732.78;5163821;28;20101;-72
2021/11/07 06:56:45;;;;;;;97.53;54.03;;;;;;;9.45;100.00;101750.25;5200995;28;20112;-71
2021/11/07 06:59:15;;;;;;;90.53;47.05;;;;;;;9.49;100.00;101742.81;5199747;28;20025;-71
2021/11/07 07:01:46;;;;;;;20.10;11.85;;;;;;;9.47;100.00;101734.88;5201446;28;20032;-72
2021/11/07 07:04:16;;;;;;;36.28;17.77;;;;;;;9.45;100.00;101750.25;5200864;28;20091;-71
2021/11/07 07:06:48;;;;;;;32.58;14.90;;;;;;;9.42;100.00;101750.53;5190511;28;20387;-71
2021/11/07 07:09:27;;;;;;;44.65;27.13;;;;;;;9.42;100.00;101753.19;5197346;28;20265;-71
2021/11/07 07:17:34;;;;;;;27.67;12.90;;;;;;;9.30;100.00;101768.53;5200374;28;20056;-71
2021/11/07 07:25:52;;;;;;;23.45;10.80;;;;;;;9.36;100.00;101729.66;5196011;28;20398;-71
2021/11/07 07:28:32;;;;;;;24.35;10.48;;;;;;;9.42;100.00;101722.91;5195030;28;20027;-71
2021/11/07 07:33:47;;;;;;;26.38;10.27;;;;;;;9.51;100.00;101744.34;5200503;28;20029;-71
2021/11/07 07:36:18;;;;;;;28.98;10.38;;;;;;;9.58;100.00;101740.13;5200599;28;20021;-71
2021/11/07 07:38:49;;;;;;;22.58;9.35;;;;;;;9.67;100.00;101751.00;5188803;28;20486;-71
2021/11/07 07:41:19;;;;;;;28.48;10.35;;;;;;;9.72;100.00;101754.13;5200591;28;20021;-71
2021/11/07 07:43:51;;;;;;;22.65;9.40;;;;;;;9.79;100.00;101755.28;5200789;28;20029;-71
2021/11/07 07:46:22;;;;;;;22.40;9.50;;;;;;;9.88;100.00;101734.81;5199984;28;20164;-71
2021/11/07 07:48:54;;;;;;;18.13;8.40;;;;;;;9.94;100.00;101736.91;5200485;28;20096;-71
2021/11/07 07:51:28;;;;;;;17.55;7.82;;;;;;;9.99;100.00;101740.03;5195848;28;20025;-71
2021/11/07 07:54:02;;;;;;;28.00;7.82;;;;;;;10.03;100.00;101742.28;5187890;28;20390;-71
2021/11/07 07:56:34;;;;;;;17.80;7.20;;;;;;;10.10;100.00;101750.63;5199944;28;20029;-71
2021/11/07 07:59:06;;;;;;;22.23;6.97;;;;;;;10.13;100.00;101753.84;5199667;28;20776;-71
2021/11/07 08:01:37;;;;;;;17.58;6.75;;;;;;;10.15;100.00;101758.25;5188409;28;20025;-71
2021/11/07 08:04:08;;;;;;;21.42;6.55;;;;;;;10.10;100.00;101764.03;5200544;28;20060;-71
2021/11/07 08:06:38;;;;;;;21.98;6.10;;;;;;;10.04;100.00;101757.41;5200444;28;20035;-71
2021/11/07 08:09:09;;;;;;;23.30;6.20;;;;;;;10.06;100.00;101755.41;5200215;28;20029;-71
2021/11/07 08:11:39;;;;;;;13.93;6.03;;;;;;;10.05;100.00;101772.50;5201422;28;20562;-72
2021/11/07 08:14:10;;;;;;;20.15;5.53;;;;;;;10.05;100.00;101766.31;5201485;28;20034;-72
2021/11/07 08:16:41;;;;;;;31.48;10.05;;;;;;;9.95;100.00;101758.25;5190798;28;20017;-71
2021/11/07 08:19:11;;;;;;;68.30;24.75;;;;;;;9.89;100.00;101780.25;5199415;28;20064;-72
2021/11/07 08:21:43;;;;;;;189.88;62.88;;;;;;;9.91;100.00;101772.91;5198919;28;20017;-71
2021/11/07 08:24:14;;;;;;;245.13;83.32;;;;;;;9.93;100.00;101778.13;5202965;28;20087;-72
2021/11/07 08:26:44;;;;;;;324.08;104.53;;;;;;;10.03;100.00;101778.97;5205022;28;20482;-71
2021/11/07 08:29:16;;;;;;;65.13;34.05;;;;;;;10.12;100.00;101773.63;5206306;28;20544;-72
2021/11/07 08:31:51;;;;;;;23.20;6.43;;;;;;;10.29;100.00;101763.19;5203707;28;20127;-72
2021/11/07 08:34:25;;;;;;;15.90;3.80;;;;;;;10.35;100.00;101768.03;5204285;28;20022;-72
2021/11/07 08:39:33;;;;;;;13.23;3.28;;;;;;;10.63;100.00;101777.84;5195397;28;20398;-71
2021/11/07 08:42:12;;;;;;;22.00;4.35;;;;;;;10.58;100.00;101777.44;5177487;28;20068;-72
2021/11/07 09:01:54;;;;;;;30.08;9.25;;;;;;;10.35;100.00;101781.44;5177902;28;20033;-72
2021/11/07 09:04:36;;;;;;;20.23;4.05;;;;;;;10.37;100.00;101795.53;5201936;28;20028;-72
2021/11/07 09:07:18;;;;;;;33.58;8.52;;;;;;;10.44;100.00;101787.75;5202352;28;20036;-72
2021/11/07 09:09:57;;;;;;;24.77;5.63;;;;;;;10.54;100.00;101789.47;5170473;28;20513;-72
2021/11/07 09:12:28;;;;;;;22.55;6.00;;;;;;;10.53;100.00;101785.06;5199499;28;20108;-71
2021/11/07 09:14:59;;;;;;;52.92;23.00;;;;;;;10.44;100.00;101772.53;5202578;28;20144;-71
2021/11/07 09:17:31;;;;;;;35.65;12.13;;;;;;;10.50;100.00;101792.56;5202549;28;20053;-71
2021/11/07 09:20:06;;;;;;;23.35;5.43;;;;;;;11.10;100.00;101790.47;5190545;28;20499;-72
2021/11/07 09:22:44;;;;;;;19.75;3.78;;;;;;;11.74;100.00;101797.63;5201111;28;20033;-72
2021/11/07 09:25:28;;;;;;;21.73;4.50;;;;;;;12.12;100.00;101791.19;5199494;28;20026;-72
2021/11/07 09:28:05;;;;;;;19.67;4.07;;;;;;;12.57;100.00;101782.16;5192937;28;20071;-72
2021/11/07 09:33:21;;;;;;;16.88;4.00;;;;;;;13.06;100.00;101784.34;5201952;28;20029;-72
2021/11/07 09:38:33;;;;;;;15.88;3.60;;;;;;;12.69;100.00;101799.75;5183459;28;20086;-72
2021/11/07 09:41:13;;;;;;;18.83;4.63;;;;;;;12.66;100.00;101800.06;5194599;28;20030;-72
2021/11/07 09:44:03;;;;;;;17.83;3.20;;;;;;;12.51;100.00;101790.03;5177520;28;20087;-72
2021/11/07 09:49:20;;;;;;;17.75;3.70;;;;;;;12.32;100.00;101801.78;5201744;28;20029;-71
2021/11/07 09:51:59;;;;;;;11.77;2.83;;;;;;;12.26;100.00;101805.09;5177330;28;20033;-72
2021/11/07 09:54:31;;;;;;;16.73;3.42;;;;;;;12.29;100.00;101815.53;5193136;28;20734;-71
2021/11/07 09:57:03;;;;;;;17.25;3.22;;;;;;;12.48;100.00;101828.00;5192125;28;20025;-72
2021/11/07 09:59:33;;;;;;;18.70;3.45;;;;;;;12.52;100.00;101816.78;5201447;28;20037;-72
2021/11/07 10:02:04;;;;;;;24.27;3.53;;;;;;;12.52;100.00;101814.09;5202612;28;20024;-72
2021/11/07 10:04:38;;;;;;;18.83;3.38;;;;;;;12.59;100.00;101811.59;5201383;28;20030;-72
2021/11/07 10:07:18;;;;;;;23.45;4.22;;;;;;;12.47;100.00;101794.03;5188103;28;20315;-72
2021/11/07 10:09:54;;;;;;;24.98;4.10;;;;;;;12.59;100.00;101803.53;5201809;28;20037;-71
2021/11/07 10:12:35;;;;;;;24.35;4.70;;;;;;;12.76;100.00;101809.91;5201734;28;20308;-72
2021/11/07 10:15:11;;;;;;;24.55;4.88;;;;;;;12.81;100.00;101789.56;5201212;28;20070;-72
2021/11/07 10:17:53;;;;;;;26.20;5.55;;;;;;;12.58;100.00;101778.47;5181096;28;20038;-72
2021/11/07 10:20:32;;;;;;;20.95;4.93;;;;;;;12.60;100.00;101791.75;5193700;28;20025;-72
2021/11/07 10:23:08;;;;;;;24.70;6.15;;;;;;;12.57;100.00;101782.16;5180915;28;20026;-72
2021/11/07 10:25:47;;;;;;;25.10;5.57;;;;;;;12.90;100.00;101796.72;5199405;28;20327;-72
2021/11/07 10:28:30;;;;;;;29.05;6.57;;;;;;;13.01;100.00;101790.22;5187787;28;20026;-72
2021/11/07 10:31:04;;;;;;;21.95;4.63;;;;;;;13.26;100.00;101771.53;5201875;28;20021;-72
2021/11/07 10:33:55;;;;;;;21.38;4.53;;;;;;;13.11;100.00;101776.63;5197743;28;20029;-71
2021/11/07 10:36:55;;;;;;;24.80;6.50;;;;;;;13.11;100.00;101780.16;5194963;28;20025;-72
2021/11/07 10:39:47;;;;;;;25.45;6.78;;;;;;;12.79;100.00;101783.47;5184489;28;20036;-72
2021/11/07 10:53:00;;;;;;;18.65;3.38;;;;;;;12.63;100.00;101802.22;5197016;28;20160;-72
2021/11/07 10:55:34;;;;;;;24.67;3.72;;;;;;;12.30;100.00;101799.28;5194387;28;20025;-72
2021/11/07 10:58:04;;;;;;;13.48;2.78;;;;;;;12.25;100.00;101800.69;5200133;28;20137;-72
2021/11/07 11:00:40;;;;;;;12.73;2.45;;;;;;;12.13;100.00;101800.09;5187666;28;20068;-72
2021/11/07 11:03:16;;;;;;;16.90;2.60;;;;;;;12.04;100.00;101801.00;5200524;28;20033;-71
2021/11/07 11:05:50;;;;;;;21.42;3.88;;;;;;;11.99;100.00;101798.78;5199725;28;20390;-71
2021/11/07 11:08:29;;;;;;;25.40;4.40;;;;;;;11.87;100.00;101813.44;5200236;28;20191;-72
2021/11/07 11:14:14;;;;;;;20.35;3.95;;;;;;;11.69;100.00;101799.94;5200222;28;20239;-71
2021/11/07 11:16:54;;;;;;;22.85;3.20;;;;;;;11.75;100.00;101791.28;5200466;28;20021;-71
2021/11/07 11:20:02;;;;;;;14.25;2.78;;;;;;;11.88;100.00;101796.31;5200117;28;20136;-72
2021/11/07 11:22:50;;;;;;;13.10;3.17;;;;;;;12.03;100.00;101802.84;5199344;28;20048;-72
2021/11/07 11:28:14;;;;;;;15.60;3.03;;;;;;;12.28;100.00;101797.72;5200190;28;20133;-71
2021/11/07 11:33:37;;;;;;;16.50;2.25;;;;;;;12.04;100.00;101799.16;5200075;28;20029;-71
2021/11/07 11:36:20;;;;;;;15.82;2.58;;;;;;;12.04;100.00;101801.84;5200071;28;20025;-72
2021/11/07 11:38:57;;;;;;;26.55;3.78;;;;;;;11.98;100.00;101791.72;5188918;28;20037;-71
2021/11/07 11:41:40;;;;;;;19.45;2.75;;;;;;;11.98;100.00;101790.88;5199960;28;20031;-72
2021/11/07 11:44:14;;;;;;;14.20;2.35;;;;;;;11.92;100.00;101792.31;5200153;28;20032;-71
2021/11/07 11:46:57;;;;;;;22.38;3.55;;;;;;;11.89;100.00;101793.47;5199738;28;20024;-71
2021/11/07 11:49:57;;;;;;;21.77;5.05;;;;;;;11.81;100.00;101793.38;5199790;28;20029;-71
2021/11/07 11:55:09;;;;;;;24.75;4.45;;;;;;;11.80;100.00;101805.13;5188018;28;20078;-71
2021/11/07 11:57:51;;;;;;;23.73;5.00;;;;;;;12.10;100.00;101787.81;5197513;28;20022;-72
2021/11/07 12:00:33;;;;;;;20.30;2.40;;;;;;;12.53;100.00;101794.22;5193210;28;20033;-71
2021/11/07 12:03:25;;;;;;;14.50;3.13;;;;;;;12.35;100.00;101790.72;5197977;28;20030;-71
2021/11/07 12:06:00;;;;;;;15.82;2.60;;;;;;;12.27;100.00;101786.13;5197560;28;20259;-71
2021/11/07 12:08:47;;;;;;;23.08;2.92;;;;;;;12.22;100.00;101784.88;5194983;28;20026;-71
2021/11/07 12:11:27;;;;;;;24.45;3.03;;;;;;;12.25;100.00;101792.63;5178737;28;20030;-72
2021/11/07 12:14:09;;;;;;;18.35;3.30;;;;;;;12.46;100.00;101793.19;5203412;28;20248;-72
2021/11/07 12:16:56;;;;;;;14.30;3.00;;;;;;;12.41;100.00;101792.81;5203869;28;20018;-71
2021/11/07 12:19:41;;;;;;;19.13;3.00;;;;;;;12.22;100.00;101799.19;5203910;28;20037;-71
2021/11/07 12:22:15;;;;;;;21.48;3.25;;;;;;;12.12;100.00;101793.88;5202012;28;20037;-71
2021/11/07 12:24:47;;;;;;;14.98;2.70;;;;;;;11.92;100.00;101789.63;5203737;28;20300;-71
2021/11/07 12:27:31;;;;;;;20.67;2.83;;;;;;;11.87;100.00;101779.34;5197683;28;20047;-71
2021/11/07 12:30:19;;;;;;;15.10;2.28;;;;;;;11.89;100.00;101803.38;5198603;28;20402;-71
2021/11/07 12:33:15;;;;;;;20.27;2.90;;;;;;;11.84;100.00;101794.91;5203266;28;20067;-71
2021/11/07 12:36:08;;;;;;;24.17;3.97;;;;;;;11.83;100.00;101785.16;5204043;28;20067;-71
2021/11/07 12:41:29;;;;;;;21.70;3.17;;;;;;;11.72;100.00;101774.59;5198888;28;20104;-71
2021/11/07 12:44:03;;;;;;;14.88;3.05;;;;;;;11.65;100.00;101796.72;5203928;28;20099;-71
2021/11/07 12:46:46;;;;;;;20.27;3.25;;;;;;;11.59;100.00;101794.59;5199481;28;20048;-71
2021/11/07 12:49:17;;;;;;;19.85;2.92;;;;;;;11.46;100.00;101788.75;5194892;28;20478;-71
2021/11/07 12:52:05;;;;;;;21.70;3.75;;;;;;;11.35;100.00;101791.63;5189919;28;20037;-71
2021/11/07 12:54:40;;;;;;;23.40;3.50;;;;;;;11.28;100.00;101798.56;5196573;28;20048;-71
2021/11/07 12:57:13;;;;;;;17.17;3.22;;;;;;;11.32;100.00;101786.56;5203287;28;20029;-71
2021/11/07 12:59:49;;;;;;;19.73;2.78;;;;;;;11.29;100.00;101778.78;5200467;28;20036;-71
2021/11/07 13:02:28;;;;;;;20.65;4.15;;;;;;;11.27;100.00;101789.69;5185370;28;20030;-71
2021/11/07 13:05:17;;;;;;;25.17;4.47;;;;;;;11.31;100.00;101791.09;5177451;28;20513;-72
2021/11/07 13:10:32;;;;;;;92.68;42.60;;;;;;;11.35;100.00;101794.31;5201928;28;20497;-71
2021/11/07 13:13:18;;;;;;;20.52;4.97;;;;;;;11.40;100.00;101792.88;5182480;28;20056;-71